Time;durP1;ratioP1;P1;durP2;ratioP2;P2;SDS_P1;SDS_P2;PMS_P1;PMS_P2;Temp;Humidity;BMP_temperature;BMP_pressure;BME280_temperature;BME280_humidity;BME280_pressure;Samples;Min_cycle;Max_cycle;Signal;HPM_P1;HPM_P2
2023/06/28 00:00:18;;;;;;;3.60;1.97;;;17.40;99.90;;;;;;465851;254;28845;-80
2023/06/28 00:02:17;;;;;;;3.80;2.70;;;17.30;99.90;;;;;;474037;251;28813;-79
2023/06/28 00:04:18;;;;;;;2.50;2.07;;;17.30;99.90;;;;;;465846;254;29245;-80
2023/06/28 00:06:22;;;;;;;2.70;2.20;;;17.20;99.90;;;;;;474172;250;29240;-80
2023/06/28 00:08:23;;;;;;;3.23;2.30;;;17.10;99.90;;;;;;465842;254;29341;-80
2023/06/28 00:10:25;;;;;;;2.30;2.10;;;17.20;99.90;;;;;;474189;250;28734;-79
2023/06/28 00:12:26;;;;;;;2.30;2.10;;;17.20;99.90;;;;;;465841;254;28845;-80
2023/06/28 00:14:27;;;;;;;3.97;2.30;;;17.20;99.90;;;;;;474178;250;28747;-79
2023/06/28 00:16:28;;;;;;;2.63;2.10;;;17.20;99.90;;;;;;465836;254;28787;-80
2023/06/28 00:18:30;;;;;;;3.33;2.53;;;17.20;99.90;;;;;;474199;250;28740;-80
2023/06/28 00:20:31;;;;;;;2.90;2.00;;;17.30;99.90;;;;;;465868;254;28859;-80
2023/06/28 00:22:32;;;;;;;2.73;1.93;;;17.20;99.90;;;;;;474195;250;28727;-79
2023/06/28 00:24:33;;;;;;;3.80;2.10;;;17.20;99.90;;;;;;471679;239;28800;-79
2023/06/28 00:26:35;;;;;;;3.63;2.20;;;17.20;99.90;;;;;;495145;240;29125;-79
2023/06/28 00:28:36;;;;;;;3.43;2.60;;;17.20;99.90;;;;;;495133;240;29011;-79
2023/06/28 00:30:37;;;;;;;2.33;2.13;;;17.20;99.90;;;;;;495133;240;29036;-79
2023/06/28 00:32:38;;;;;;;6.07;2.10;;;17.20;99.90;;;;;;495145;240;29110;-80
2023/06/28 00:34:40;;;;;;;2.27;2.07;;;17.20;99.90;;;;;;495136;240;28670;-80
2023/06/28 00:36:41;;;;;;;2.37;1.87;;;17.10;99.90;;;;;;495140;239;28533;-79
2023/06/28 00:38:42;;;;;;;6.87;2.30;;;17.10;99.90;;;;;;495137;240;28540;-80
2023/06/28 00:40:43;;;;;;;2.63;1.80;;;17.10;99.90;;;;;;495119;240;28546;-80
2023/06/28 00:42:45;;;;;;;2.13;1.93;;;17.10;99.90;;;;;;495062;240;28652;-79
2023/06/28 00:44:46;;;;;;;5.13;2.07;;;17.10;99.90;;;;;;495109;240;28753;-80
2023/06/28 00:46:47;;;;;;;4.90;2.17;;;17.10;99.90;;;;;;495114;240;28556;-79
2023/06/28 00:48:48;;;;;;;2.33;2.03;;;17.10;99.90;;;;;;495112;240;28610;-79
2023/06/28 00:50:50;;;;;;;4.97;2.00;;;17.10;99.90;;;;;;495140;240;28649;-79
2023/06/28 00:52:51;;;;;;;2.03;1.90;;;17.10;99.90;;;;;;495123;240;29118;-80
2023/06/28 00:54:52;;;;;;;2.40;2.20;;;17.10;99.90;;;;;;495125;240;29009;-81
2023/06/28 00:56:53;;;;;;;2.10;1.90;;;17.10;99.90;;;;;;495055;240;29114;-78
2023/06/28 00:58:55;;;;;;;4.13;2.30;;;17.10;99.90;;;;;;494861;240;28604;-80
2023/06/28 01:00:56;;;;;;;4.77;2.30;;;17.00;99.90;;;;;;495134;240;28535;-78
2023/06/28 01:02:57;;;;;;;2.63;2.10;;;17.00;99.90;;;;;;495134;240;28550;-80
2023/06/28 01:04:58;;;;;;;6.80;2.40;;;17.00;99.90;;;;;;495062;240;28561;-80
2023/06/28 01:07:00;;;;;;;6.50;2.70;;;16.90;99.90;;;;;;495115;240;28642;-80
2023/06/28 01:09:01;;;;;;;2.30;2.10;;;16.90;99.90;;;;;;495109;240;28558;-81
2023/06/28 01:11:02;;;;;;;4.07;2.47;;;16.90;99.90;;;;;;494997;240;28541;-78
2023/06/28 01:13:03;;;;;;;2.00;1.90;;;16.90;99.90;;;;;;495132;240;28605;-80
2023/06/28 01:15:05;;;;;;;4.40;2.20;;;16.90;99.90;;;;;;494936;240;28636;-79
2023/06/28 01:17:06;;;;;;;1.97;1.87;;;16.80;99.90;;;;;;495125;240;29206;-79
2023/06/28 01:19:07;;;;;;;4.33;2.20;;;16.80;99.90;;;;;;495127;240;29130;-78
2023/06/28 01:21:08;;;;;;;1.93;1.83;;;16.80;99.90;;;;;;495131;240;29085;-80
2023/06/28 01:23:10;;;;;;;4.43;2.40;;;16.70;99.90;;;;;;494972;240;29046;-79
2023/06/28 01:25:11;;;;;;;5.83;2.20;;;16.60;99.90;;;;;;495054;240;28633;-80
2023/06/28 01:27:13;;;;;;;4.07;2.33;;;16.60;99.90;;;;;;495110;240;28658;-79
2023/06/28 01:29:13;;;;;;;4.67;2.40;;;16.60;99.90;;;;;;495117;240;28640;-79
2023/06/28 01:31:15;;;;;;;3.63;2.47;;;16.60;99.90;;;;;;495127;240;28563;-80
2023/06/28 01:33:16;;;;;;;6.73;2.40;;;16.60;99.90;;;;;;495133;240;28551;-79
2023/06/28 01:35:17;;;;;;;4.07;2.20;;;16.60;99.90;;;;;;495135;240;28543;-80
2023/06/28 01:37:18;;;;;;;7.47;2.97;;;16.60;99.90;;;;;;495129;240;28625;-79
2023/06/28 01:39:20;;;;;;;3.60;2.10;;;16.60;99.90;;;;;;495126;240;28673;-79
2023/06/28 01:41:21;;;;;;;8.00;2.20;;;16.60;99.90;;;;;;495089;240;28643;-80
2023/06/28 01:43:22;;;;;;;5.70;2.43;;;16.60;99.90;;;;;;495129;240;29047;-80
2023/06/28 01:45:23;;;;;;;5.20;2.10;;;16.60;99.90;;;;;;495116;240;28996;-80
2023/06/28 01:47:25;;;;;;;4.73;2.33;;;16.60;99.90;;;;;;495113;240;29193;-79
2023/06/28 01:49:26;;;;;;;3.33;2.27;;;16.50;99.90;;;;;;495131;240;28627;-80
2023/06/28 01:51:27;;;;;;;3.57;2.20;;;16.60;99.90;;;;;;495121;240;28550;-77
2023/06/28 01:53:28;;;;;;;2.50;1.70;;;16.70;99.90;;;;;;495133;240;28530;-80
2023/06/28 01:55:30;;;;;;;3.13;1.87;;;16.70;99.90;;;;;;495111;240;28743;-80
2023/06/28 01:57:31;;;;;;;5.67;2.10;;;16.70;99.90;;;;;;495078;240;28624;-80
2023/06/28 01:59:32;;;;;;;2.37;2.10;;;16.60;99.90;;;;;;495135;240;28621;-80
2023/06/28 02:01:33;;;;;;;3.33;2.40;;;16.60;99.90;;;;;;495139;240;28645;-80
2023/06/28 02:03:35;;;;;;;2.73;2.03;;;16.60;99.90;;;;;;495130;240;28631;-80
2023/06/28 02:05:36;;;;;;;2.30;1.90;;;16.60;99.90;;;;;;495084;240;28628;-80
2023/06/28 02:07:37;;;;;;;2.67;2.00;;;16.50;99.90;;;;;;495112;240;29519;-80
2023/06/28 02:09:38;;;;;;;2.90;2.10;;;16.40;99.90;;;;;;495125;240;28998;-80
2023/06/28 02:11:40;;;;;;;3.20;2.00;;;16.40;99.90;;;;;;495131;240;29028;-80
2023/06/28 02:13:41;;;;;;;2.67;2.10;;;16.40;99.90;;;;;;495053;240;28636;-80
2023/06/28 02:15:42;;;;;;;2.87;2.00;;;16.30;99.90;;;;;;495126;240;28561;-80
2023/06/28 02:17:43;;;;;;;2.50;2.10;;;16.40;99.90;;;;;;495083;239;28736;-80
2023/06/28 02:19:45;;;;;;;2.47;2.03;;;16.40;99.90;;;;;;495115;240;28550;-79
2023/06/28 02:21:46;;;;;;;4.93;2.30;;;16.40;99.90;;;;;;495130;240;28646;-81
2023/06/28 02:23:47;;;;;;;4.00;2.07;;;16.40;99.90;;;;;;494952;240;28625;-79
2023/06/28 02:25:48;;;;;;;3.93;2.17;;;16.40;99.90;;;;;;495097;240;28637;-79
2023/06/28 02:27:50;;;;;;;5.00;2.23;;;16.40;99.90;;;;;;495118;240;28554;-80
2023/06/28 02:29:51;;;;;;;3.00;2.37;;;16.40;99.90;;;;;;495128;240;28647;-79
2023/06/28 02:31:52;;;;;;;2.03;1.93;;;16.40;99.90;;;;;;495115;240;29157;-80
2023/06/28 02:33:53;;;;;;;3.37;2.00;;;16.40;99.90;;;;;;495126;240;29005;-79
2023/06/28 02:35:55;;;;;;;2.37;2.13;;;16.40;99.90;;;;;;495110;240;29088;-79
2023/06/28 02:37:56;;;;;;;3.20;2.50;;;16.40;99.90;;;;;;495135;240;28996;-79
2023/06/28 02:39:57;;;;;;;2.50;2.30;;;16.30;99.90;;;;;;495121;240;28545;-79
2023/06/28 02:41:58;;;;;;;3.03;1.97;;;16.30;99.90;;;;;;495130;240;28643;-78
2023/06/28 02:44:00;;;;;;;2.00;1.90;;;16.30;99.90;;;;;;495124;240;28649;-79
2023/06/28 02:46:01;;;;;;;2.30;2.10;;;16.40;99.90;;;;;;495119;240;28646;-80
2023/06/28 02:48:02;;;;;;;3.93;2.30;;;16.30;99.90;;;;;;495090;240;28649;-79
2023/06/28 02:50:05;;;;;;;4.27;2.20;;;16.30;99.90;;;;;;495025;239;28622;-79
2023/06/28 02:52:05;;;;;;;2.80;2.20;;;16.30;99.90;;;;;;494933;240;28567;-80
2023/06/28 02:54:06;;;;;;;3.63;2.10;;;16.30;99.90;;;;;;495115;240;28526;-77
2023/06/28 02:56:07;;;;;;;4.07;2.30;;;16.30;99.90;;;;;;495113;240;28718;-80
2023/06/28 02:58:08;;;;;;;2.67;1.97;;;16.20;99.90;;;;;;495109;240;29101;-79
2023/06/28 03:00:10;;;;;;;3.00;2.00;;;16.20;99.90;;;;;;495122;240;28992;-78
2023/06/28 03:02:11;;;;;;;2.73;2.00;;;16.20;99.90;;;;;;495027;240;29126;-79
2023/06/28 03:04:12;;;;;;;3.37;2.13;;;16.20;99.90;;;;;;490271;237;28819;-80
2023/06/28 03:06:13;;;;;;;3.87;2.10;;;16.20;99.90;;;;;;478388;249;28985;-79
2023/06/28 03:08:15;;;;;;;2.30;2.07;;;16.10;99.90;;;;;;478359;249;28981;-79
2023/06/28 03:10:16;;;;;;;2.70;2.20;;;16.20;99.90;;;;;;478382;249;28793;-79
2023/06/28 03:12:17;;;;;;;2.73;2.40;;;16.20;99.90;;;;;;478383;249;28916;-79
2023/06/28 03:14:18;;;;;;;3.00;2.30;;;16.20;99.90;;;;;;478375;249;28874;-79
2023/06/28 03:16:20;;;;;;;5.07;2.00;;;16.10;99.90;;;;;;478392;249;28885;-80
2023/06/28 03:18:21;;;;;;;6.53;2.60;;;16.10;99.90;;;;;;478379;249;28857;-79
2023/06/28 03:20:22;;;;;;;3.00;2.07;;;16.20;99.90;;;;;;478366;249;28986;-79
2023/06/28 03:22:23;;;;;;;3.93;2.33;;;16.10;99.90;;;;;;478369;249;29373;-79
2023/06/28 03:24:25;;;;;;;3.37;2.17;;;16.10;99.90;;;;;;478374;249;29435;-80
2023/06/28 03:26:26;;;;;;;4.03;2.50;;;16.10;99.90;;;;;;478379;249;29373;-80
2023/06/28 03:28:27;;;;;;;2.93;2.30;;;16.10;99.90;;;;;;478389;249;29437;-80
2023/06/28 03:30:28;;;;;;;2.90;2.40;;;16.10;99.90;;;;;;478383;249;28777;-79
2023/06/28 03:32:30;;;;;;;2.63;2.10;;;16.00;99.90;;;;;;478421;249;28884;-80
2023/06/28 03:34:31;;;;;;;2.40;2.10;;;16.00;99.90;;;;;;478396;249;28885;-78
2023/06/28 03:36:34;;;;;;;4.10;2.50;;;16.00;99.90;;;;;;478373;249;28788;-78
2023/06/28 03:38:33;;;;;;;4.00;2.30;;;16.00;99.90;;;;;;478271;249;28892;-79
2023/06/28 03:40:36;;;;;;;3.53;2.33;;;16.00;99.90;;;;;;478405;249;28786;-79
2023/06/28 03:42:36;;;;;;;4.20;2.70;;;16.00;99.90;;;;;;478318;249;28781;-80
2023/06/28 03:44:37;;;;;;;3.60;2.40;;;16.00;99.90;;;;;;478407;249;28767;-78
2023/06/28 03:46:38;;;;;;;3.03;2.57;;;15.90;99.90;;;;;;478402;249;28778;-77
2023/06/28 03:48:40;;;;;;;3.27;2.47;;;15.90;99.90;;;;;;478397;249;29445;-77
2023/06/28 03:50:41;;;;;;;2.83;2.23;;;15.90;99.90;;;;;;478407;249;29373;-79
2023/06/28 03:52:42;;;;;;;2.90;1.90;;;15.90;99.90;;;;;;478398;249;29609;-79
2023/06/28 03:54:43;;;;;;;3.03;2.50;;;15.90;99.90;;;;;;478387;249;28769;-79
2023/06/28 03:56:45;;;;;;;4.83;2.63;;;15.90;99.90;;;;;;478402;249;28887;-79
2023/06/28 03:58:49;;;;;;;3.60;2.60;;;15.80;99.90;;;;;;478390;249;28770;-80
2023/06/28 04:00:47;;;;;;;2.00;1.90;;;15.90;99.90;;;;;;478180;249;28879;-78
2023/06/28 04:02:48;;;;;;;3.30;2.50;;;15.90;99.90;;;;;;478380;249;28868;-80
2023/06/28 04:04:50;;;;;;;4.10;2.50;;;15.90;99.90;;;;;;478402;244;28774;-80
2023/06/28 04:06:51;;;;;;;2.73;2.33;;;16.00;99.90;;;;;;478410;244;28921;-80
2023/06/28 04:08:52;;;;;;;4.03;2.40;;;15.90;99.90;;;;;;478379;249;28891;-80
2023/06/28 04:10:54;;;;;;;9.50;2.60;;;15.90;99.90;;;;;;478389;249;28963;-79
2023/06/28 04:12:55;;;;;;;2.80;2.30;;;16.00;99.90;;;;;;478395;249;29308;-79
2023/06/28 04:14:56;;;;;;;3.30;2.37;;;16.10;99.90;;;;;;478386;249;29333;-80
2023/06/28 04:16:57;;;;;;;3.30;2.20;;;16.10;99.90;;;;;;478418;249;29355;-80
2023/06/28 04:18:59;;;;;;;3.00;2.37;;;16.10;99.90;;;;;;478404;249;28865;-78
2023/06/28 04:21:00;;;;;;;2.97;2.40;;;16.10;99.90;;;;;;478403;249;28758;-79
2023/06/28 04:23:01;;;;;;;2.73;2.17;;;16.10;99.90;;;;;;478405;249;28769;-80
2023/06/28 04:25:03;;;;;;;3.00;2.30;;;16.10;99.90;;;;;;478343;249;28881;-79
2023/06/28 04:27:04;;;;;;;3.23;2.17;;;16.10;99.90;;;;;;478378;249;28774;-79
2023/06/28 04:29:05;;;;;;;5.73;2.93;;;16.20;99.90;;;;;;478403;244;28768;-79
2023/06/28 04:31:06;;;;;;;5.83;2.43;;;16.20;99.90;;;;;;478394;249;28846;-79
2023/06/28 04:33:07;;;;;;;2.97;2.10;;;16.20;99.90;;;;;;478409;249;28779;-79
2023/06/28 04:35:09;;;;;;;5.00;2.53;;;16.20;99.90;;;;;;478402;249;28796;-79
2023/06/28 04:37:10;;;;;;;2.20;2.10;;;16.10;99.90;;;;;;478368;249;29251;-79
2023/06/28 04:39:11;;;;;;;2.97;2.20;;;16.20;99.90;;;;;;478394;249;29330;-78
2023/06/28 04:41:12;;;;;;;2.93;2.20;;;16.20;99.90;;;;;;478395;249;29347;-79
2023/06/28 04:43:14;;;;;;;3.93;2.30;;;16.30;99.90;;;;;;478383;249;29233;-80
2023/06/28 04:45:15;;;;;;;5.43;2.33;;;16.40;99.90;;;;;;478396;249;28775;-79
2023/06/28 04:47:16;;;;;;;5.00;2.70;;;16.50;99.90;;;;;;478370;249;28846;-80
2023/06/28 04:49:17;;;;;;;3.47;2.40;;;16.50;99.90;;;;;;478382;249;28849;-81
2023/06/28 04:51:19;;;;;;;2.60;2.40;;;16.70;99.90;;;;;;478336;249;28866;-80
2023/06/28 04:53:20;;;;;;;2.50;2.30;;;16.70;99.90;;;;;;478367;249;28846;-78
2023/06/28 04:55:21;;;;;;;2.33;2.10;;;16.80;99.90;;;;;;478387;249;28831;-80
2023/06/28 04:57:22;;;;;;;3.03;2.23;;;16.90;99.90;;;;;;478388;249;28773;-79
2023/06/28 04:59:24;;;;;;;3.47;2.33;;;17.00;99.90;;;;;;478384;249;28862;-80
2023/06/28 05:01:25;;;;;;;6.93;2.50;;;16.90;99.90;;;;;;478359;249;28873;-80
2023/06/28 05:03:27;;;;;;;3.60;2.50;;;16.90;99.90;;;;;;478390;249;29243;-79
2023/06/28 05:05:27;;;;;;;4.67;2.50;;;17.00;99.90;;;;;;478320;249;29275;-80
2023/06/28 05:07:29;;;;;;;3.10;2.43;;;17.00;99.90;;;;;;478376;249;29250;-80
2023/06/28 05:09:30;;;;;;;5.23;2.60;;;17.00;99.90;;;;;;478382;249;28954;-80
2023/06/28 05:11:31;;;;;;;3.47;2.20;;;17.00;99.90;;;;;;478389;249;28840;-81
2023/06/28 05:13:32;;;;;;;2.13;2.03;;;17.10;99.90;;;;;;478397;249;28874;-79
2023/06/28 05:15:34;;;;;;;3.70;1.90;;;17.10;99.90;;;;;;478391;249;28832;-81
2023/06/28 05:17:35;;;;;;;2.43;2.23;;;17.10;99.90;;;;;;478355;249;28862;-79
2023/06/28 05:19:36;;;;;;;2.67;2.30;;;17.20;99.90;;;;;;478392;249;28857;-80
2023/06/28 05:21:37;;;;;;;4.10;2.30;;;17.30;99.90;;;;;;478332;249;28856;-78
2023/06/28 05:23:39;;;;;;;2.07;1.87;;;17.50;99.90;;;;;;478363;249;29245;-79
2023/06/28 05:25:40;;;;;;;4.07;2.20;;;17.50;99.90;;;;;;485632;235;29283;-77
2023/06/28 05:27:41;;;;;;;4.40;2.60;;;17.50;99.90;;;;;;486619;244;29305;-77
2023/06/28 05:29:42;;;;;;;4.30;2.50;;;17.50;99.90;;;;;;486608;244;28811;-80
2023/06/28 05:31:44;;;;;;;3.40;2.43;;;17.50;99.90;;;;;;486641;244;28806;-81
2023/06/28 05:33:45;;;;;;;4.63;2.40;;;17.50;99.90;;;;;;486619;244;28894;-80
2023/06/28 05:35:46;;;;;;;4.97;2.50;;;17.60;99.90;;;;;;486617;244;28803;-80
2023/06/28 05:37:47;;;;;;;3.67;2.57;;;17.50;99.90;;;;;;486617;244;28812;-81
2023/06/28 05:39:49;;;;;;;2.90;2.17;;;17.60;99.90;;;;;;486618;244;28794;-80
2023/06/28 05:41:50;;;;;;;4.87;2.23;;;17.70;99.90;;;;;;486628;244;28827;-80
2023/06/28 05:45:55;;;;;;;3.13;2.40;;;17.80;99.90;;;;;;479539;245;28783;-80
2023/06/28 05:47:57;;;;;;;3.53;2.37;;;17.80;99.90;;;;;;481475;247;28821;-80
2023/06/28 05:49:57;;;;;;;2.80;2.40;;;17.90;99.90;;;;;;471069;249;28986;-79
2023/06/28 05:51:59;;;;;;;3.73;2.70;;;17.90;99.90;;;;;;481452;247;28741;-80
2023/06/28 05:54:00;;;;;;;6.63;2.43;;;17.90;99.90;;;;;;481493;246;28745;-80
2023/06/28 05:56:01;;;;;;;4.47;2.40;;;17.90;99.90;;;;;;481487;246;28822;-80
2023/06/28 05:58:02;;;;;;;5.07;2.60;;;17.90;99.90;;;;;;481486;246;29279;-79
2023/06/28 06:00:04;;;;;;;3.77;2.30;;;18.00;99.90;;;;;;481497;246;29211;-80
2023/06/28 06:02:05;;;;;;;2.47;2.27;;;18.10;99.90;;;;;;481377;247;29251;-80
2023/06/28 06:04:06;;;;;;;3.90;2.50;;;18.20;99.90;;;;;;481492;246;29287;-81
2023/06/28 06:06:07;;;;;;;2.63;2.20;;;18.30;99.90;;;;;;481477;246;28754;-80
2023/06/28 06:08:09;;;;;;;4.47;2.80;;;18.40;99.90;;;;;;481494;246;28741;-80
2023/06/28 06:10:10;;;;;;;2.27;2.07;;;18.40;99.90;;;;;;481492;246;28755;-80
2023/06/28 06:12:11;;;;;;;5.43;2.63;;;18.50;99.90;;;;;;481484;246;28747;-80
2023/06/28 06:14:12;;;;;;;4.47;2.37;;;18.60;99.90;;;;;;481482;246;28819;-80
2023/06/28 06:16:14;;;;;;;3.37;2.60;;;18.70;99.90;;;;;;481505;247;28838;-80
2023/06/28 06:18:15;;;;;;;3.13;2.50;;;18.70;99.90;;;;;;481500;246;28761;-77
2023/06/28 06:20:16;;;;;;;3.20;2.17;;;18.90;99.90;;;;;;481505;246;28737;-78
2023/06/28 06:22:17;;;;;;;5.13;2.50;;;18.80;99.90;;;;;;481520;246;29292;-80
2023/06/28 06:24:19;;;;;;;6.07;2.50;;;18.90;99.90;;;;;;481501;246;29379;-78
2023/06/28 06:26:20;;;;;;;3.47;2.27;;;19.00;99.90;;;;;;481485;246;29313;-81
2023/06/28 06:28:21;;;;;;;4.07;2.40;;;19.10;99.90;;;;;;481501;246;29195;-80
2023/06/28 06:30:22;;;;;;;5.90;2.70;;;19.20;99.90;;;;;;481500;246;28731;-81
2023/06/28 06:32:24;;;;;;;4.70;2.67;;;19.30;99.90;;;;;;481356;247;28819;-81
2023/06/28 06:34:25;;;;;;;6.90;2.47;;;19.30;99.90;;;;;;481487;246;28772;-81
2023/06/28 06:36:26;;;;;;;3.57;2.40;;;19.30;99.90;;;;;;481482;247;28845;-81
2023/06/28 06:38:27;;;;;;;4.90;2.60;;;18.90;99.90;;;;;;481481;246;28790;-81
2023/06/28 06:40:29;;;;;;;5.00;2.53;;;18.90;99.90;;;;;;481489;246;28741;-80
2023/06/28 06:42:30;;;;;;;9.80;2.83;;;18.90;99.90;;;;;;481487;246;28736;-79
2023/06/28 06:44:31;;;;;;;4.77;2.60;;;18.60;99.90;;;;;;481480;246;28742;-79
2023/06/28 06:46:32;;;;;;;5.73;2.77;;;19.00;99.90;;;;;;481488;247;28749;-80
2023/06/28 06:48:34;;;;;;;6.83;3.10;;;18.90;99.90;;;;;;481462;246;29290;-80
2023/06/28 06:50:35;;;;;;;2.80;2.30;;;18.70;99.90;;;;;;481486;246;29204;-81
2023/06/28 06:52:36;;;;;;;5.57;3.10;;;18.70;99.90;;;;;;481486;246;29219;-81
2023/06/28 06:54:37;;;;;;;6.60;2.70;;;18.80;99.90;;;;;;481477;246;29297;-80
2023/06/28 06:56:39;;;;;;;9.50;2.60;;;18.50;99.90;;;;;;481475;246;28744;-81
2023/06/28 06:58:40;;;;;;;6.10;2.37;;;18.80;99.90;;;;;;481484;246;28832;-81
2023/06/28 07:00:41;;;;;;;5.53;2.20;;;19.20;99.90;;;;;;481476;246;28735;-81
2023/06/28 07:02:43;;;;;;;5.63;2.53;;;19.40;99.90;;;;;;481491;246;28770;-80
2023/06/28 07:04:44;;;;;;;5.90;2.80;;;19.60;99.90;;;;;;481476;247;28820;-81
2023/06/28 07:06:46;;;;;;;3.70;2.60;;;19.40;99.90;;;;;;481479;246;28748;-81
2023/06/28 07:08:46;;;;;;;4.53;2.60;;;19.70;99.90;;;;;;481439;247;28747;-80
2023/06/28 07:10:47;;;;;;;4.67;2.50;;;19.60;99.90;;;;;;481475;246;28752;-81
2023/06/28 07:12:49;;;;;;;5.97;2.60;;;19.40;99.90;;;;;;481478;247;29256;-80
2023/06/28 07:14:50;;;;;;;6.90;3.03;;;19.30;99.90;;;;;;481476;246;29325;-81
2023/06/28 07:16:51;;;;;;;2.20;2.00;;;19.70;99.90;;;;;;481486;246;29231;-80
2023/06/28 07:18:54;;;;;;;11.13;2.93;;;20.00;99.90;;;;;;481449;246;28841;-81
2023/06/28 07:20:54;;;;;;;3.30;2.60;;;19.90;99.90;;;;;;481436;246;28871;-81
2023/06/28 07:22:55;;;;;;;4.63;2.40;;;19.80;99.90;;;;;;481468;247;28866;-80
2023/06/28 07:24:56;;;;;;;4.47;3.00;;;20.00;99.90;;;;;;481440;246;28841;-81
2023/06/28 07:26:57;;;;;;;4.50;2.93;;;20.00;99.90;;;;;;481450;246;28737;-81
2023/06/28 07:28:59;;;;;;;5.93;2.47;;;19.90;99.90;;;;;;481459;246;28753;-81
2023/06/28 07:31:00;;;;;;;5.30;2.77;;;19.90;99.90;;;;;;481459;246;28751;-80
2023/06/28 07:33:01;;;;;;;6.90;2.83;;;19.80;99.90;;;;;;481479;246;28846;-81
2023/06/28 07:35:02;;;;;;;4.30;2.50;;;19.70;99.90;;;;;;481471;246;29203;-80
2023/06/28 07:37:06;;;;;;;4.40;2.43;;;19.80;99.90;;;;;;481463;246;29220;-81
2023/06/28 07:39:05;;;;;;;3.50;2.33;;;20.40;99.90;;;;;;481368;247;29287;-81
2023/06/28 07:41:06;;;;;;;4.60;2.50;;;20.80;99.90;;;;;;481485;246;29220;-80
2023/06/28 07:43:07;;;;;;;4.87;2.50;;;21.00;99.90;;;;;;481476;246;29230;-80
2023/06/28 07:45:09;;;;;;;4.00;2.23;;;21.20;99.90;;;;;;481506;246;28816;-79
2023/06/28 07:47:10;;;;;;;5.67;2.60;;;21.40;99.80;;;;;;481483;246;28745;-80
2023/06/28 07:49:11;;;;;;;5.30;2.20;;;21.50;98.90;;;;;;481471;246;28768;-80
2023/06/28 07:51:12;;;;;;;6.50;2.47;;;21.30;99.40;;;;;;481464;246;28744;-80
2023/06/28 07:53:14;;;;;;;5.50;2.50;;;21.50;98.70;;;;;;481477;246;28769;-80
2023/06/28 07:55:15;;;;;;;4.10;2.47;;;21.70;98.10;;;;;;481464;246;28771;-80
2023/06/28 07:57:16;;;;;;;2.70;2.30;;;21.80;97.50;;;;;;481480;246;28736;-81
2023/06/28 07:59:17;;;;;;;2.73;2.10;;;21.80;97.80;;;;;;481486;246;28765;-81
2023/06/28 08:01:19;;;;;;;3.93;2.17;;;21.50;98.50;;;;;;481474;246;29219;-79
2023/06/28 08:03:20;;;;;;;5.00;2.50;;;21.60;99.10;;;;;;481458;246;29212;-80
2023/06/28 08:05:21;;;;;;;2.60;2.27;;;21.70;98.60;;;;;;481477;246;29244;-80
2023/06/28 08:07:23;;;;;;;3.17;2.30;;;21.60;99.00;;;;;;481483;246;29194;-80
2023/06/28 08:09:24;;;;;;;5.57;2.20;;;21.60;99.00;;;;;;481475;246;28841;-79
2023/06/28 08:11:26;;;;;;;8.70;2.30;;;21.70;98.10;;;;;;481492;246;28747;-79
2023/06/28 08:13:26;;;;;;;5.37;2.20;;;21.60;97.80;;;;;;481406;247;28772;-80
2023/06/28 08:15:28;;;;;;;2.87;2.17;;;21.70;97.60;;;;;;481478;246;28744;-81
2023/06/28 08:17:29;;;;;;;9.63;2.40;;;21.80;97.70;;;;;;481494;246;28748;-80
2023/06/28 08:19:30;;;;;;;5.67;2.27;;;21.70;97.00;;;;;;481457;247;28928;-80
2023/06/28 08:21:31;;;;;;;3.53;2.20;;;21.30;97.10;;;;;;481502;246;28745;-79
2023/06/28 08:23:33;;;;;;;3.20;2.03;;;21.10;97.90;;;;;;481496;246;28768;-81
2023/06/28 08:25:34;;;;;;;3.63;2.27;;;21.10;99.00;;;;;;481500;246;29163;-79
2023/06/28 08:27:35;;;;;;;4.70;2.27;;;21.30;99.10;;;;;;481510;246;29216;-80
2023/06/28 08:29:36;;;;;;;2.40;1.97;;;21.50;98.00;;;;;;481480;246;29337;-80
2023/06/28 08:31:38;;;;;;;2.30;1.67;;;21.70;97.80;;;;;;481477;247;29222;-80
2023/06/28 08:33:39;;;;;;;9.33;2.57;;;21.60;97.40;;;;;;481356;247;28743;-80
2023/06/28 08:35:40;;;;;;;10.03;2.43;;;21.80;97.30;;;;;;481513;246;28737;-79
2023/06/28 08:37:41;;;;;;;5.50;3.00;;;21.80;97.60;;;;;;481497;246;28826;-80
2023/06/28 08:39:43;;;;;;;3.57;2.03;;;21.50;97.30;;;;;;481499;246;28779;-79
2023/06/28 08:41:44;;;;;;;3.70;2.40;;;21.80;97.40;;;;;;481505;246;28824;-79
2023/06/28 08:43:45;;;;;;;2.07;1.80;;;22.30;96.50;;;;;;481505;246;28759;-80
2023/06/28 08:45:46;;;;;;;8.07;1.87;;;22.60;96.40;;;;;;481433;247;28730;-80
2023/06/28 08:47:48;;;;;;;4.17;2.27;;;22.70;96.00;;;;;;481484;246;28769;-80
2023/06/28 08:49:49;;;;;;;3.30;2.10;;;22.50;96.50;;;;;;481485;246;29481;-80
2023/06/28 08:51:50;;;;;;;3.03;2.10;;;22.50;95.90;;;;;;481479;247;29268;-80
2023/06/28 08:53:51;;;;;;;4.77;1.90;;;22.50;96.20;;;;;;481469;247;29223;-79
2023/06/28 08:55:53;;;;;;;4.47;2.27;;;22.60;96.20;;;;;;481503;247;29314;-80
2023/06/28 08:57:54;;;;;;;3.43;2.23;;;22.30;96.30;;;;;;481510;246;28828;-79
2023/06/28 08:59:55;;;;;;;3.07;2.00;;;22.30;95.80;;;;;;481483;246;28769;-80
2023/06/28 09:01:58;;;;;;;3.53;2.33;;;22.30;96.70;;;;;;481491;246;28812;-80
2023/06/28 09:03:58;;;;;;;4.13;2.50;;;22.50;95.80;;;;;;481368;247;28747;-80
2023/06/28 09:05:59;;;;;;;5.47;2.40;;;22.60;95.80;;;;;;481483;246;28823;-79
2023/06/28 09:08:00;;;;;;;4.57;2.03;;;22.70;94.90;;;;;;481494;247;28761;-78
2023/06/28 09:10:01;;;;;;;5.23;2.37;;;22.90;94.80;;;;;;481449;247;28728;-81
2023/06/28 09:12:03;;;;;;;6.80;2.63;;;22.90;94.90;;;;;;481423;247;28757;-80
2023/06/28 09:14:04;;;;;;;3.43;2.30;;;23.10;94.30;;;;;;481510;246;28757;-80
2023/06/28 09:16:05;;;;;;;4.87;2.40;;;23.10;94.80;;;;;;481478;246;29336;-80
2023/06/28 09:18:06;;;;;;;4.27;2.30;;;23.20;94.70;;;;;;481498;246;29223;-79
2023/06/28 09:20:08;;;;;;;2.87;2.10;;;22.80;95.20;;;;;;481502;246;29193;-79
2023/06/28 09:22:09;;;;;;;4.50;2.47;;;22.70;95.60;;;;;;481503;246;28732;-79
2023/06/28 09:24:10;;;;;;;3.83;1.97;;;22.80;95.80;;;;;;481501;246;28751;-79
2023/06/28 09:26:11;;;;;;;2.37;1.97;;;23.00;95.90;;;;;;481495;247;28760;-80
2023/06/28 09:28:13;;;;;;;1.73;1.63;;;23.10;95.10;;;;;;481482;246;28834;-80
2023/06/28 09:30:14;;;;;;;5.00;2.57;;;23.00;94.90;;;;;;481487;246;28730;-79
2023/06/28 09:32:15;;;;;;;4.40;1.90;;;22.70;94.80;;;;;;481498;246;28763;-81
2023/06/28 09:34:16;;;;;;;6.43;2.30;;;22.60;95.50;;;;;;480193;247;36250;-80
2023/06/28 09:36:18;;;;;;;6.50;2.00;;;22.40;96.10;;;;;;481503;246;27433;-80
2023/06/28 09:38:19;;;;;;;3.63;2.13;;;22.20;96.10;;;;;;481504;246;28770;-79
2023/06/28 09:40:20;;;;;;;3.10;2.10;;;22.50;96.00;;;;;;481490;246;29303;-81
2023/06/28 09:42:21;;;;;;;7.63;2.53;;;22.70;95.50;;;;;;481503;246;29199;-79
2023/06/28 09:44:23;;;;;;;3.33;2.00;;;22.90;95.20;;;;;;481499;246;29212;-79
2023/06/28 09:46:24;;;;;;;3.57;2.10;;;23.10;94.40;;;;;;481409;246;28847;-79
2023/06/28 09:48:26;;;;;;;2.73;1.90;;;23.30;94.70;;;;;;481482;246;28773;-79
2023/06/28 09:50:26;;;;;;;5.77;2.27;;;23.60;94.00;;;;;;481465;246;28732;-80
2023/06/28 09:52:28;;;;;;;2.90;2.13;;;23.90;93.80;;;;;;481417;247;28824;-79
2023/06/28 09:54:29;;;;;;;4.77;2.20;;;23.90;93.30;;;;;;481500;246;28815;-79
2023/06/28 09:56:30;;;;;;;3.00;2.00;;;24.20;92.70;;;;;;481496;246;28746;-80
2023/06/28 09:58:31;;;;;;;2.17;1.80;;;24.20;92.40;;;;;;481502;246;28814;-79
2023/06/28 10:00:33;;;;;;;8.97;2.33;;;24.20;92.70;;;;;;481481;241;28745;-79
2023/06/28 10:02:34;;;;;;;7.50;2.10;;;23.80;93.00;;;;;;481482;246;28826;-80
2023/06/28 10:04:35;;;;;;;2.40;2.20;;;23.50;93.70;;;;;;481494;246;29334;-79
2023/06/28 10:06:36;;;;;;;3.40;2.03;;;23.30;93.60;;;;;;481484;246;29210;-79
2023/06/28 10:08:38;;;;;;;2.30;1.97;;;23.20;93.80;;;;;;481387;247;29302;-79
2023/06/28 10:10:39;;;;;;;4.03;2.07;;;23.10;93.90;;;;;;481463;246;28845;-80
2023/06/28 10:12:40;;;;;;;3.97;2.23;;;23.00;93.60;;;;;;481488;246;28841;-80
2023/06/28 10:14:44;;;;;;;7.27;2.57;;;23.00;93.10;;;;;;481486;246;28840;-80
2023/06/28 10:16:46;;;;;;;5.33;2.30;;;22.90;93.40;;;;;;481489;246;29338;-79
2023/06/28 10:18:47;;;;;;;2.70;1.80;;;22.90;93.20;;;;;;481388;247;28745;-79
2023/06/28 10:20:48;;;;;;;2.90;2.23;;;22.80;94.00;;;;;;481482;246;28841;-79
2023/06/28 10:22:49;;;;;;;4.23;1.97;;;22.90;93.10;;;;;;481486;246;28735;-79
2023/06/28 10:24:51;;;;;;;4.77;2.43;;;22.90;93.70;;;;;;481482;247;28827;-80
2023/06/28 10:26:52;;;;;;;3.50;2.10;;;22.80;94.30;;;;;;481491;246;28753;-80
2023/06/28 10:28:54;;;;;;;3.80;2.20;;;22.50;94.50;;;;;;481488;246;28736;-79
2023/06/28 10:30:54;;;;;;;4.63;1.97;;;22.50;94.00;;;;;;481478;247;28732;-79
2023/06/28 10:32:57;;;;;;;4.60;2.30;;;22.40;94.40;;;;;;481490;246;28844;-77